Time;durP1;ratioP1;P1;durP2;ratioP2;P2;SDS_P1;SDS_P2;PMS_P1;PMS_P2;Temp;Humidity;BMP_temperature;BMP_pressure;BME280_temperature;BME280_humidity;BME280_pressure;Samples;Min_cycle;Max_cycle;Signal;HPM_P1;HPM_P2
2023/03/06 00:00:22;;;;;;;7.32;4.68;;;1.40;99.90;;;;;;5012388;28;20445;-82
2023/03/06 00:02:49;;;;;;;6.18;4.80;;;1.40;99.90;;;;;;5012948;28;20379;-82
2023/03/06 00:05:16;;;;;;;8.27;5.75;;;1.40;99.90;;;;;;5012430;28;20379;-82
2023/03/06 00:07:42;;;;;;;6.00;5.17;;;1.30;99.90;;;;;;5010744;28;20995;-83
2023/03/06 00:10:16;;;;;;;6.47;4.90;;;1.30;99.90;;;;;;5011965;28;20395;-81
2023/03/06 00:12:41;;;;;;;8.32;5.50;;;1.30;99.90;;;;;;5011985;28;20885;-83
2023/03/06 00:15:08;;;;;;;8.20;4.85;;;1.30;99.90;;;;;;5012052;28;20383;-81
2023/03/06 00:17:34;;;;;;;7.00;4.68;;;1.50;99.90;;;;;;5012038;28;20382;-82
2023/03/06 00:19:59;;;;;;;7.27;4.93;;;1.40;99.90;;;;;;5011840;28;20746;-82
2023/03/06 00:22:25;;;;;;;7.07;5.10;;;1.40;99.90;;;;;;5011973;28;21424;-83
2023/03/06 00:24:52;;;;;;;6.77;5.27;;;1.40;99.90;;;;;;5012193;28;20375;-82
2023/03/06 00:27:19;;;;;;;7.85;5.13;;;1.40;99.90;;;;;;5011507;28;20858;-82
2023/03/06 00:29:47;;;;;;;7.50;4.90;;;1.40;99.90;;;;;;5012926;28;20387;-82
2023/03/06 00:32:14;;;;;;;6.93;4.60;;;1.40;99.90;;;;;;5013154;28;20383;-82
2023/03/06 00:34:39;;;;;;;5.95;4.97;;;1.40;99.90;;;;;;5011797;28;20738;-83
2023/03/06 00:37:05;;;;;;;8.70;4.90;;;1.30;99.90;;;;;;5011443;28;20478;-85
2023/03/06 00:39:31;;;;;;;5.22;4.43;;;1.30;99.90;;;;;;5020168;28;20409;-83
2023/03/06 00:41:57;;;;;;;5.80;4.32;;;1.20;99.90;;;;;;5030651;28;20952;-85
2023/03/06 00:44:22;;;;;;;5.87;4.50;;;1.30;99.90;;;;;;5030706;28;20460;-83
2023/03/06 00:46:48;;;;;;;5.10;4.47;;;1.30;99.90;;;;;;5030748;28;20389;-84
2023/03/06 00:49:13;;;;;;;5.90;4.80;;;1.30;99.90;;;;;;5031209;28;20392;-82
2023/03/06 00:51:39;;;;;;;6.40;4.40;;;1.40;99.90;;;;;;5030128;28;20455;-81
2023/03/06 00:54:05;;;;;;;5.22;4.25;;;1.40;99.90;;;;;;5029441;28;20404;-81
2023/03/06 00:56:30;;;;;;;6.63;5.07;;;1.40;99.90;;;;;;5030196;28;20787;-81
2023/03/06 00:58:56;;;;;;;6.10;5.00;;;1.40;99.90;;;;;;5029531;28;21079;-81
2023/03/06 01:01:22;;;;;;;7.10;5.30;;;1.50;99.90;;;;;;5028772;28;20981;-83
2023/03/06 01:03:47;;;;;;;8.52;5.18;;;1.40;99.90;;;;;;5024823;28;20925;-83
2023/03/06 01:06:13;;;;;;;8.30;5.82;;;1.40;99.90;;;;;;5029215;28;20473;-82
2023/03/06 01:08:39;;;;;;;6.65;5.30;;;1.20;99.90;;;;;;5025549;28;20403;-83
2023/03/06 01:11:04;;;;;;;7.00;5.72;;;1.20;99.90;;;;;;5025990;28;20468;-82
2023/03/06 01:13:30;;;;;;;7.50;6.40;;;1.20;99.90;;;;;;5021851;28;20395;-81
2023/03/06 01:16:08;;;;;;;8.37;6.90;;;1.20;99.90;;;;;;5017283;28;20907;-81
2023/03/06 01:18:34;;;;;;;8.13;6.95;;;1.20;99.90;;;;;;5028676;28;20837;-82
2023/03/06 01:20:59;;;;;;;11.00;8.93;;;1.30;99.90;;;;;;5010770;28;20438;-84
2023/03/06 01:23:25;;;;;;;13.27;9.23;;;1.30;99.90;;;;;;5016467;28;20455;-83
2023/03/06 01:25:51;;;;;;;13.37;10.43;;;1.10;99.90;;;;;;5028084;28;20812;-82
2023/03/06 01:28:16;;;;;;;15.30;11.90;;;1.00;99.90;;;;;;5029007;28;20427;-82
2023/03/06 01:30:42;;;;;;;15.98;11.98;;;1.10;99.90;;;;;;5026133;28;20406;-83
2023/03/06 01:33:08;;;;;;;14.52;12.40;;;1.10;99.90;;;;;;5013453;28;20375;-82
2023/03/06 01:35:33;;;;;;;16.20;12.68;;;1.10;99.90;;;;;;5012775;28;20880;-83
2023/03/06 01:37:59;;;;;;;18.20;14.33;;;1.10;99.90;;;;;;5029648;28;20382;-84
2023/03/06 01:40:24;;;;;;;19.90;15.80;;;1.10;99.90;;;;;;5030653;28;20396;-82
2023/03/06 01:42:50;;;;;;;20.47;16.17;;;1.00;99.90;;;;;;5028847;28;20892;-81
2023/03/06 01:45:16;;;;;;;21.48;16.38;;;0.90;99.90;;;;;;5030017;28;20768;-81
2023/03/06 01:47:43;;;;;;;24.27;17.40;;;1.10;99.90;;;;;;5029586;28;20947;-83
2023/03/06 01:50:10;;;;;;;24.50;17.57;;;1.10;99.90;;;;;;5026075;28;20483;-84
2023/03/06 01:52:42;;;;;;;26.90;18.38;;;1.10;99.90;;;;;;5010694;28;20395;-83
2023/03/06 01:55:12;;;;;;;26.63;19.73;;;1.10;99.90;;;;;;5010600;28;20391;-84
2023/03/06 01:57:44;;;;;;;27.08;18.30;;;1.10;99.90;;;;;;5009804;28;20378;-81
2023/03/06 02:00:17;;;;;;;27.03;17.43;;;1.10;99.90;;;;;;5009959;28;20486;-83
2023/03/06 02:02:53;;;;;;;18.70;13.80;;;1.20;99.90;;;;;;5009693;28;20699;-82
2023/03/06 02:05:20;;;;;;;17.95;12.70;;;1.40;99.90;;;;;;5010242;28;20707;-81
2023/03/06 02:07:47;;;;;;;17.85;12.57;;;1.40;99.90;;;;;;5007701;28;20391;-82
2023/03/06 02:10:14;;;;;;;16.25;11.32;;;1.50;99.90;;;;;;5009876;28;20473;-82
2023/03/06 02:12:42;;;;;;;16.65;11.05;;;1.60;99.90;;;;;;5041520;28;20441;-83
2023/03/06 02:15:13;;;;;;;17.13;11.10;;;1.70;99.90;;;;;;5010192;28;20425;-82
2023/03/06 02:17:40;;;;;;;16.88;11.20;;;1.70;99.90;;;;;;5008883;28;20383;-82
2023/03/06 02:20:43;;;;;;;16.80;10.85;;;1.70;99.90;;;;;;5009353;28;21149;-81
2023/03/06 02:23:26;;;;;;;15.20;10.43;;;1.60;99.90;;;;;;5009703;28;20387;-81
2023/03/06 02:25:53;;;;;;;16.90;10.73;;;1.70;99.90;;;;;;5026722;28;20854;-82
2023/03/06 02:28:22;;;;;;;13.90;10.30;;;1.70;99.90;;;;;;5027369;28;20432;-81
2023/03/06 02:30:50;;;;;;;14.77;10.40;;;1.60;99.90;;;;;;5020201;28;20393;-82
2023/03/06 02:33:19;;;;;;;15.65;9.95;;;1.80;99.90;;;;;;5026708;28;21137;-83
2023/03/06 02:35:57;;;;;;;14.98;10.15;;;1.80;99.90;;;;;;5011182;28;20407;-82
2023/03/06 02:38:33;;;;;;;12.35;9.43;;;1.90;99.90;;;;;;5022053;28;20417;-82
2023/03/06 02:41:02;;;;;;;13.57;9.90;;;2.00;99.90;;;;;;5024908;28;20438;-82
2023/03/06 02:45:55;;;;;;;15.32;9.15;;;1.90;99.90;;;;;;5264337;23;20427;-81
2023/03/06 02:48:20;;;;;;;12.98;9.40;;;1.80;99.90;;;;;;5022889;28;20435;-82
2023/03/06 02:50:47;;;;;;;16.88;9.90;;;1.80;99.90;;;;;;5027942;28;20389;-81
2023/03/06 02:53:16;;;;;;;11.95;9.00;;;1.80;99.90;;;;;;5009747;28;20379;-83
2023/03/06 02:55:42;;;;;;;14.82;9.32;;;1.90;99.90;;;;;;5009777;28;20379;-82
2023/03/06 02:58:08;;;;;;;14.63;9.25;;;1.80;99.90;;;;;;5012999;28;20873;-84
2023/03/06 03:00:35;;;;;;;12.77;9.15;;;2.00;99.90;;;;;;5029194;28;20385;-82
2023/03/06 03:03:01;;;;;;;12.18;9.10;;;1.90;99.90;;;;;;5026965;28;20385;-84
2023/03/06 03:05:27;;;;;;;12.33;8.50;;;2.00;99.90;;;;;;5009347;28;20383;-83
2023/03/06 03:07:52;;;;;;;10.97;8.00;;;1.90;99.90;;;;;;5027509;28;20906;-83
2023/03/06 03:10:18;;;;;;;10.97;8.60;;;1.90;99.90;;;;;;4993206;28;20444;-83
2023/03/06 03:12:44;;;;;;;12.30;8.53;;;1.90;99.90;;;;;;4993570;28;20474;-82
2023/03/06 03:15:10;;;;;;;10.93;8.17;;;2.00;99.90;;;;;;4992394;28;20397;-82
2023/03/06 03:17:37;;;;;;;12.95;8.65;;;2.00;99.90;;;;;;4992989;28;20437;-82
2023/03/06 03:20:06;;;;;;;11.75;7.97;;;1.90;99.90;;;;;;4991541;28;20413;-82
2023/03/06 03:22:31;;;;;;;11.88;8.50;;;2.00;99.90;;;;;;4993606;28;20834;-84
2023/03/06 03:24:57;;;;;;;12.52;9.18;;;2.20;99.90;;;;;;4984678;28;20488;-82
2023/03/06 03:27:23;;;;;;;11.60;9.63;;;2.20;99.90;;;;;;4987085;28;20410;-81
2023/03/06 03:29:48;;;;;;;13.20;10.73;;;2.10;99.90;;;;;;4991497;28;20419;-82
2023/03/06 03:32:14;;;;;;;11.40;10.20;;;2.00;99.90;;;;;;5004512;28;20470;-82
2023/03/06 03:34:40;;;;;;;11.57;9.50;;;1.90;99.90;;;;;;5011988;28;20877;-81
2023/03/06 03:37:05;;;;;;;13.98;10.35;;;1.70;99.90;;;;;;5021868;28;20405;-83
2023/03/06 03:39:31;;;;;;;12.75;10.68;;;1.60;99.90;;;;;;5012765;28;20420;-82
2023/03/06 03:41:57;;;;;;;11.38;9.77;;;1.50;99.90;;;;;;5016790;28;20443;-83
2023/03/06 03:44:22;;;;;;;11.20;9.67;;;1.40;99.90;;;;;;5039740;28;20481;-85
2023/03/06 03:46:48;;;;;;;10.27;9.13;;;1.40;99.90;;;;;;5009224;28;20449;-83
2023/03/06 03:49:14;;;;;;;10.23;9.13;;;1.40;99.90;;;;;;5025530;28;20488;-84
2023/03/06 03:51:39;;;;;;;9.83;8.63;;;1.30;99.90;;;;;;5022858;28;20954;-84
2023/03/06 03:54:05;;;;;;;8.85;7.95;;;1.40;99.90;;;;;;5011853;28;20512;-84
2023/03/06 03:56:31;;;;;;;8.43;7.30;;;1.40;99.90;;;;;;5028314;28;20949;-82
2023/03/06 03:58:57;;;;;;;8.23;7.43;;;1.60;99.90;;;;;;5023592;28;20496;-83
2023/03/06 04:01:23;;;;;;;8.80;7.67;;;1.40;99.90;;;;;;5016851;28;20551;-83
2023/03/06 04:03:49;;;;;;;8.37;7.57;;;1.30;99.90;;;;;;5028746;28;20696;-81
2023/03/06 04:06:15;;;;;;;7.93;7.13;;;1.30;99.90;;;;;;5021261;28;20390;-85
2023/03/06 04:08:41;;;;;;;8.10;7.20;;;1.40;99.90;;;;;;5026013;28;20412;-82
2023/03/06 04:11:06;;;;;;;8.30;7.50;;;1.30;99.90;;;;;;5026261;28;20851;-86
2023/03/06 04:13:32;;;;;;;7.97;7.17;;;1.30;99.90;;;;;;5028213;28;20863;-84
2023/03/06 04:15:58;;;;;;;8.30;7.50;;;1.30;99.90;;;;;;5028720;28;20440;-84
2023/03/06 04:18:24;;;;;;;9.77;7.60;;;1.30;99.90;;;;;;5015925;28;20379;-84
2023/03/06 04:20:50;;;;;;;7.70;6.93;;;1.30;99.90;;;;;;5008959;28;20389;-84
2023/03/06 04:23:17;;;;;;;7.72;6.97;;;1.30;99.90;;;;;;5011996;28;20468;-84
2023/03/06 04:25:43;;;;;;;7.80;7.00;;;1.30;99.90;;;;;;5028055;28;20381;-81
2023/03/06 04:28:10;;;;;;;8.40;7.57;;;1.50;99.90;;;;;;5027948;28;20783;-82
2023/03/06 04:30:35;;;;;;;8.38;7.57;;;1.50;99.90;;;;;;5030049;28;20413;-83
2023/03/06 04:33:01;;;;;;;8.43;7.63;;;1.30;99.90;;;;;;5032074;28;20826;-82
2023/03/06 04:35:27;;;;;;;8.23;7.43;;;1.20;99.90;;;;;;5030256;28;20385;-83
2023/03/06 04:37:53;;;;;;;9.10;7.33;;;1.10;99.90;;;;;;5029995;28;20421;-82
2023/03/06 04:40:23;;;;;;;7.93;7.13;;;1.10;99.90;;;;;;5030854;28;20405;-82
2023/03/06 04:42:49;;;;;;;8.77;7.80;;;1.10;99.90;;;;;;5033383;28;20381;-84
2023/03/06 04:45:15;;;;;;;7.72;6.80;;;1.10;99.90;;;;;;5032428;28;20385;-85
2023/03/06 04:47:41;;;;;;;6.82;6.13;;;1.20;99.90;;;;;;5032564;28;20382;-83
2023/03/06 04:50:08;;;;;;;6.68;6.07;;;1.50;99.90;;;;;;5031839;28;20410;-83
2023/03/06 04:52:34;;;;;;;7.85;6.25;;;1.40;99.90;;;;;;5028687;28;20860;-85
2023/03/06 04:54:59;;;;;;;7.57;6.27;;;1.30;99.90;;;;;;5023768;28;20462;-83
2023/03/06 04:57:25;;;;;;;7.00;5.97;;;1.40;99.90;;;;;;5025322;28;20801;-83
2023/03/06 04:59:51;;;;;;;6.57;5.60;;;1.40;99.90;;;;;;5046520;28;20409;-84
2023/03/06 05:02:17;;;;;;;7.85;6.05;;;1.30;99.90;;;;;;5032019;28;20508;-83
2023/03/06 05:04:43;;;;;;;8.17;6.30;;;1.10;99.90;;;;;;5032386;28;20475;-84
2023/03/06 05:07:09;;;;;;;6.80;6.10;;;1.20;99.90;;;;;;5031039;28;20377;-82
2023/03/06 05:09:35;;;;;;;7.47;5.88;;;1.20;99.90;;;;;;5030078;28;20872;-82
2023/03/06 05:12:01;;;;;;;7.18;5.40;;;1.20;99.90;;;;;;5023384;28;20490;-82
2023/03/06 05:14:31;;;;;;;7.17;5.27;;;1.10;99.90;;;;;;5028957;28;20376;-85
2023/03/06 05:16:57;;;;;;;6.63;5.40;;;1.00;99.90;;;;;;5049622;28;20442;-82
2023/03/06 05:19:22;;;;;;;6.25;4.90;;;1.00;99.90;;;;;;5051130;28;20781;-83
2023/03/06 05:21:48;;;;;;;6.97;5.27;;;1.10;99.90;;;;;;5039072;28;20475;-83
2023/03/06 05:24:14;;;;;;;7.60;5.23;;;1.00;99.90;;;;;;5010891;28;20442;-82
2023/03/06 05:26:40;;;;;;;7.40;5.57;;;0.90;99.90;;;;;;5010541;28;20376;-85
2023/03/06 05:29:05;;;;;;;6.32;5.40;;;1.00;99.90;;;;;;5011113;28;20379;-81
2023/03/06 05:31:31;;;;;;;5.82;5.20;;;1.10;99.90;;;;;;5011708;28;20910;-85
2023/03/06 05:33:57;;;;;;;7.18;5.80;;;1.20;99.90;;;;;;5009824;28;20797;-82
2023/03/06 05:36:23;;;;;;;7.37;6.33;;;1.10;99.90;;;;;;5011281;28;20515;-85
2023/03/06 05:38:49;;;;;;;8.90;6.90;;;1.00;99.90;;;;;;5016565;28;20523;-81
2023/03/06 05:41:15;;;;;;;7.85;6.68;;;1.00;99.90;;;;;;5030637;28;20401;-82
2023/03/06 05:43:41;;;;;;;9.52;7.03;;;1.00;99.90;;;;;;5033248;28;20420;-83
2023/03/06 05:46:07;;;;;;;8.05;6.25;;;0.90;99.90;;;;;;5022086;28;20451;-83
2023/03/06 05:48:34;;;;;;;7.20;6.32;;;1.20;99.90;;;;;;5027226;28;20389;-82
2023/03/06 05:51:01;;;;;;;6.75;6.07;;;1.10;99.90;;;;;;5027016;28;20394;-83
2023/03/06 05:53:28;;;;;;;6.95;6.18;;;1.30;99.90;;;;;;5016798;28;20401;-83
2023/03/06 05:56:00;;;;;;;8.83;6.33;;;1.10;99.90;;;;;;5017809;28;20397;-82
2023/03/06 05:58:27;;;;;;;7.45;6.65;;;0.90;99.90;;;;;;5025007;28;21291;-83
2023/03/06 06:00:53;;;;;;;7.60;6.80;;;0.90;99.90;;;;;;5030348;28;20463;-83
2023/03/06 06:03:19;;;;;;;6.83;6.10;;;0.90;99.90;;;;;;5029163;28;20424;-83
2023/03/06 06:05:45;;;;;;;7.72;6.88;;;0.90;99.90;;;;;;5029508;28;20413;-83
2023/03/06 06:08:11;;;;;;;8.50;6.55;;;0.90;99.90;;;;;;5030328;28;20808;-83
2023/03/06 06:10:38;;;;;;;8.00;6.63;;;1.00;99.90;;;;;;5028085;28;20435;-83
2023/03/06 06:13:04;;;;;;;7.93;7.07;;;1.00;99.90;;;;;;5029839;28;20868;-83
2023/03/06 06:15:29;;;;;;;8.25;7.35;;;1.10;99.90;;;;;;5027843;28;20374;-84
2023/03/06 06:17:56;;;;;;;8.70;7.05;;;1.00;99.90;;;;;;5028581;28;20844;-85
2023/03/06 06:20:22;;;;;;;7.97;7.10;;;0.90;99.90;;;;;;5029348;28;20433;-84
2023/03/06 06:22:48;;;;;;;8.40;6.55;;;0.90;99.90;;;;;;5028596;28;21168;-83
2023/03/06 06:25:16;;;;;;;7.73;6.93;;;1.20;99.90;;;;;;5029201;28;20421;-83
2023/03/06 06:27:41;;;;;;;7.75;6.70;;;1.30;99.90;;;;;;5028832;28;20374;-84
2023/03/06 06:30:10;;;;;;;7.57;6.10;;;1.20;99.90;;;;;;5029373;28;20732;-85
2023/03/06 06:32:36;;;;;;;7.53;6.60;;;1.40;99.90;;;;;;5029881;28;20384;-83
2023/03/06 06:35:03;;;;;;;6.63;6.00;;;1.30;99.90;;;;;;5029364;28;20385;-84
2023/03/06 06:37:29;;;;;;;7.50;6.70;;;1.30;99.90;;;;;;5027729;28;20385;-82
2023/03/06 06:39:54;;;;;;;6.50;5.90;;;1.20;99.90;;;;;;5028705;28;20424;-83
2023/03/06 06:42:20;;;;;;;7.33;6.27;;;1.30;99.90;;;;;;5029212;28;20729;-84
2023/03/06 06:44:46;;;;;;;6.57;5.87;;;1.30;99.90;;;;;;5029022;28;20473;-83
2023/03/06 06:47:12;;;;;;;6.93;6.00;;;1.20;99.90;;;;;;5028806;28;20544;-84
2023/03/06 06:49:38;;;;;;;5.90;5.07;;;1.20;99.90;;;;;;5028754;28;20468;-85
2023/03/06 06:52:05;;;;;;;6.93;5.85;;;1.30;99.90;;;;;;5029412;28;21085;-84
2023/03/06 06:54:33;;;;;;;5.55;5.05;;;1.30;99.90;;;;;;5028395;28;20874;-83
2023/03/06 06:56:59;;;;;;;5.75;5.03;;;1.30;99.90;;;;;;5028622;28;21899;-85
2023/03/06 06:59:25;;;;;;;5.13;4.63;;;1.40;99.90;;;;;;5028717;28;20441;-83
2023/03/06 07:01:51;;;;;;;5.10;4.50;;;1.30;99.90;;;;;;5028489;28;20400;-82
2023/03/06 07:04:18;;;;;;;5.70;4.47;;;1.30;99.90;;;;;;5029075;28;20453;-82
2023/03/06 07:06:43;;;;;;;5.53;4.18;;;1.30;99.90;;;;;;5028063;28;20795;-83
2023/03/06 07:09:11;;;;;;;4.35;3.90;;;1.20;99.90;;;;;;5028374;28;20401;-84
2023/03/06 07:11:38;;;;;;;4.60;4.03;;;1.40;99.90;;;;;;5028701;28;20378;-86
2023/03/06 07:14:04;;;;;;;4.30;3.13;;;1.40;99.90;;;;;;5028210;28;20394;-86
2023/03/06 07:16:30;;;;;;;5.18;3.55;;;1.50;99.90;;;;;;5028174;28;20396;-84
2023/03/06 07:18:55;;;;;;;5.70;3.58;;;1.50;99.90;;;;;;5029228;28;20413;-84
2023/03/06 07:21:21;;;;;;;3.85;3.50;;;1.60;99.90;;;;;;5028644;28;20381;-84
2023/03/06 07:23:47;;;;;;;3.72;3.22;;;1.60;99.90;;;;;;5026894;28;20630;-83
2023/03/06 07:26:13;;;;;;;3.47;3.17;;;1.70;99.90;;;;;;5028133;28;20475;-83
2023/03/06 07:28:38;;;;;;;4.30;3.60;;;1.70;99.90;;;;;;5025637;28;20732;-83
2023/03/06 07:31:10;;;;;;;4.57;3.40;;;1.70;99.90;;;;;;5008983;28;20403;-84
2023/03/06 07:33:36;;;;;;;3.50;3.20;;;1.70;99.90;;;;;;5010017;28;20947;-84
2023/03/06 07:36:02;;;;;;;3.90;3.50;;;1.70;99.90;;;;;;5026375;28;20404;-86
2023/03/06 07:38:28;;;;;;;3.83;3.25;;;1.70;99.90;;;;;;5026896;28;21053;-85
2023/03/06 07:40:54;;;;;;;4.10;3.63;;;1.90;99.90;;;;;;5031251;28;20512;-86
2023/03/06 07:43:20;;;;;;;4.50;3.75;;;1.90;99.90;;;;;;5030936;28;20378;-85
2023/03/06 07:45:55;;;;;;;3.85;3.35;;;2.10;99.90;;;;;;5043249;28;20419;-85
2023/03/06 07:48:21;;;;;;;3.90;2.83;;;2.20;99.90;;;;;;5047564;28;20533;-85
2023/03/06 07:50:55;;;;;;;4.18;3.10;;;2.10;99.90;;;;;;5038889;28;20555;-85
2023/03/06 07:53:21;;;;;;;3.28;2.90;;;2.30;99.90;;;;;;5026398;28;20427;-85
2023/03/06 07:55:47;;;;;;;3.67;3.03;;;2.30;99.90;;;;;;5026458;28;20853;-85
2023/03/06 07:58:12;;;;;;;5.30;3.20;;;2.10;99.90;;;;;;5020325;28;20419;-85
2023/03/06 08:00:38;;;;;;;3.45;3.10;;;2.10;99.90;;;;;;5009620;28;20414;-85
2023/03/06 08:03:17;;;;;;;4.13;3.40;;;2.10;99.90;;;;;;5006760;28;20505;-85
2023/03/06 08:05:43;;;;;;;3.95;3.55;;;2.00;99.90;;;;;;5026346;28;20389;-84
2023/03/06 08:08:09;;;;;;;3.85;3.05;;;2.30;99.90;;;;;;5017897;28;20455;-84
2023/03/06 08:10:36;;;;;;;5.22;3.38;;;2.40;99.90;;;;;;5028517;28;20806;-85
2023/03/06 08:13:01;;;;;;;3.20;2.90;;;2.60;99.90;;;;;;5031141;28;20401;-86
2023/03/06 08:15:29;;;;;;;3.95;3.10;;;2.60;99.90;;;;;;5031538;28;20377;-86
2023/03/06 08:17:55;;;;;;;4.18;3.13;;;2.70;99.90;;;;;;5023092;28;20905;-83
2023/03/06 08:20:21;;;;;;;4.57;3.72;;;2.50;99.90;;;;;;5011560;28;20414;-84
2023/03/06 08:22:49;;;;;;;4.57;3.00;;;2.50;99.90;;;;;;4994131;28;20479;-85
2023/03/06 08:25:16;;;;;;;3.63;2.42;;;2.60;99.90;;;;;;5011797;28;20375;-85
2023/03/06 08:27:42;;;;;;;3.03;2.58;;;2.60;99.90;;;;;;5017133;28;20397;-84
2023/03/06 08:30:09;;;;;;;3.83;2.72;;;2.70;99.90;;;;;;5029083;28;20413;-84
2023/03/06 08:32:40;;;;;;;5.78;2.88;;;2.80;99.90;;;;;;5030114;28;20424;-86
2023/03/06 08:35:06;;;;;;;3.67;2.90;;;2.90;99.90;;;;;;5017742;28;20441;-86
2023/03/06 08:37:35;;;;;;;3.58;2.92;;;3.00;99.90;;;;;;5028017;28;20486;-86
2023/03/06 08:40:03;;;;;;;5.07;3.60;;;3.00;99.90;;;;;;5029733;28;20417;-87
2023/03/06 08:42:31;;;;;;;3.83;3.20;;;2.90;99.90;;;;;;5043367;28;20441;-85
2023/03/06 08:44:57;;;;;;;4.80;3.10;;;2.90;99.90;;;;;;5027466;28;20418;-85
2023/03/06 08:47:25;;;;;;;4.93;2.83;;;2.80;99.90;;;;;;5012545;28;20379;-84
2023/03/06 08:49:50;;;;;;;3.30;2.67;;;2.70;99.90;;;;;;5012873;28;20936;-83
2023/03/06 08:52:16;;;;;;;3.43;2.50;;;2.70;99.90;;;;;;5010947;28;20391;-84
2023/03/06 08:54:42;;;;;;;3.28;2.33;;;2.50;99.90;;;;;;5017748;28;20395;-84
2023/03/06 08:57:08;;;;;;;2.88;2.10;;;2.80;99.90;;;;;;5013504;28;20459;-85
2023/03/06 08:59:34;;;;;;;4.05;2.10;;;2.60;99.90;;;;;;5031115;28;20406;-84
2023/03/06 09:02:00;;;;;;;3.40;2.27;;;2.40;99.90;;;;;;5031777;28;20389;-84
2023/03/06 09:04:30;;;;;;;4.57;2.35;;;2.40;99.90;;;;;;5028812;28;20408;-85
2023/03/06 09:06:55;;;;;;;3.70;2.30;;;2.50;99.90;;;;;;5033013;28;20386;-84
2023/03/06 09:09:21;;;;;;;3.70;2.43;;;2.60;99.90;;;;;;5032542;28;20400;-85
2023/03/06 09:11:47;;;;;;;3.23;2.43;;;2.90;99.90;;;;;;5029887;28;20753;-83
2023/03/06 09:14:13;;;;;;;3.87;2.00;;;2.80;99.90;;;;;;5030897;28;20385;-84
2023/03/06 09:16:39;;;;;;;3.13;2.07;;;2.90;99.90;;;;;;5021286;28;20561;-84
2023/03/06 09:19:05;;;;;;;3.87;2.60;;;2.90;99.90;;;;;;5012530;28;20402;-84
2023/03/06 09:21:31;;;;;;;2.92;1.88;;;3.10;99.90;;;;;;5017004;28;20382;-85
2023/03/06 09:23:58;;;;;;;3.78;2.30;;;3.40;99.90;;;;;;5032492;28;20389;-84
2023/03/06 09:26:23;;;;;;;2.47;2.10;;;3.40;99.90;;;;;;5031861;28;20381;-84
2023/03/06 09:28:49;;;;;;;2.55;2.00;;;3.50;99.90;;;;;;5030618;28;20709;-84
2023/03/06 09:31:18;;;;;;;3.08;2.42;;;3.50;99.90;;;;;;5027906;28;20959;-83
2023/03/06 09:33:44;;;;;;;3.25;2.75;;;3.40;99.90;;;;;;5029990;28;20934;-83
2023/03/06 09:36:19;;;;;;;3.85;2.80;;;3.40;99.90;;;;;;5028931;28;20378;-84
2023/03/06 09:38:46;;;;;;;2.80;2.20;;;3.50;99.90;;;;;;5028929;28;20410;-85
2023/03/06 09:41:36;;;;;;;3.17;2.17;;;3.70;99.90;;;;;;5024523;28;20430;-85
2023/03/06 09:44:13;;;;;;;2.95;2.30;;;3.30;99.90;;;;;;5009553;28;20460;-85
2023/03/06 09:47:16;;;;;;;3.67;2.15;;;3.00;99.90;;;;;;5024775;28;20584;-85
2023/03/06 09:49:47;;;;;;;3.60;2.40;;;3.30;99.90;;;;;;5009833;28;20442;-84
2023/03/06 09:52:38;;;;;;;3.53;2.50;;;3.70;99.90;;;;;;5009084;28;20393;-84
2023/03/06 09:55:03;;;;;;;3.40;2.00;;;3.60;99.90;;;;;;5010662;28;20392;-83
2023/03/06 09:57:48;;;;;;;2.70;2.33;;;3.10;99.90;;;;;;5014483;28;21054;-84
2023/03/06 10:00:25;;;;;;;3.65;2.28;;;3.10;99.90;;;;;;5027741;28;20457;-84
2023/03/06 10:03:32;;;;;;;3.67;2.67;;;3.30;99.90;;;;;;5019274;28;21302;-84
2023/03/06 10:06:26;;;;;;;3.20;2.90;;;3.50;99.90;;;;;;5029078;28;20398;-84
2023/03/06 10:09:14;;;;;;;4.68;3.35;;;3.40;99.90;;;;;;5026196;28;20409;-85
2023/03/06 10:11:46;;;;;;;3.22;2.80;;;3.10;99.90;;;;;;5029762;28;20419;-84
2023/03/06 10:14:28;;;;;;;4.07;3.20;;;3.00;99.90;;;;;;5030087;28;20385;-85
2023/03/06 10:16:57;;;;;;;4.73;3.30;;;2.70;99.90;;;;;;5029621;28;20462;-84
2023/03/06 10:19:33;;;;;;;3.63;3.33;;;2.70;99.90;;;;;;5029237;28;20405;-84
2023/03/06 10:22:17;;;;;;;3.42;3.00;;;2.70;99.90;;;;;;5029606;28;20406;-83
2023/03/06 10:25:20;;;;;;;4.30;3.28;;;2.70;99.90;;;;;;5028289;28;20394;-83
2023/03/06 10:28:05;;;;;;;6.20;3.95;;;2.60;99.90;;;;;;5029030;28;20385;-83
2023/03/06 10:30:55;;;;;;;5.93;3.53;;;2.60;99.90;;;;;;5029619;28;20431;-84
2023/03/06 10:33:45;;;;;;;5.22;3.42;;;2.70;99.90;;;;;;5001852;28;20824;-83
2023/03/06 10:36:17;;;;;;;5.70;3.17;;;2.50;99.90;;;;;;5010694;28;20478;-83
2023/03/06 10:38:47;;;;;;;5.47;3.20;;;2.40;99.90;;;;;;5008825;28;20391;-84
2023/03/06 10:41:12;;;;;;;4.43;3.10;;;2.10;99.90;;;;;;5010554;28;20387;-84
2023/03/06 10:44:05;;;;;;;6.35;3.28;;;2.20;99.90;;;;;;5023745;28;20806;-83
2023/03/06 10:46:33;;;;;;;4.07;3.23;;;2.40;99.90;;;;;;5027751;28;21025;-83
2023/03/06 10:49:01;;;;;;;6.10;3.70;;;2.50;99.90;;;;;;5028689;28;20382;-83
2023/03/06 10:51:28;;;;;;;7.35;3.53;;;2.90;99.90;;;;;;5029112;28;20404;-83
2023/03/06 10:54:00;;;;;;;5.93;3.65;;;3.10;99.90;;;;;;5025451;28;20402;-83
2023/03/06 10:56:35;;;;;;;6.65;3.30;;;3.10;99.90;;;;;;5028868;28;20385;-83
2023/03/06 10:59:05;;;;;;;2.72;2.40;;;3.40;99.90;;;;;;5023766;28;20406;-83
2023/03/06 11:01:31;;;;;;;9.00;2.78;;;3.50;99.90;;;;;;5012406;28;20394;-83
2023/03/06 11:04:35;;;;;;;5.40;2.73;;;3.30;99.90;;;;;;5018954;28;20530;-84
2023/03/06 11:07:16;;;;;;;4.57;2.70;;;3.40;99.90;;;;;;5007658;28;20379;-84
2023/03/06 11:09:57;;;;;;;4.53;2.15;;;3.70;99.90;;;;;;5008958;28;20387;-85
2023/03/06 11:12:35;;;;;;;4.20;2.80;;;3.90;99.90;;;;;;5007652;28;20390;-84
2023/03/06 11:15:22;;;;;;;4.55;2.13;;;3.40;99.90;;;;;;5008018;28;20391;-84
2023/03/06 11:18:06;;;;;;;4.38;2.90;;;3.50;99.90;;;;;;5005735;28;20502;-84
2023/03/06 11:20:58;;;;;;;;;;;;;;;;;;;;;
2023/03/06 11:23:37;;;;;;;3.78;2.50;;;3.70;99.90;;;;;;5006815;28;20409;-85
2023/03/06 11:26:30;;;;;;;3.03;2.35;;;3.50;99.90;;;;;;5007331;28;20478;-85
2023/03/06 11:29:37;;;;;;;4.47;2.22;;;3.20;99.90;;;;;;5009806;28;20900;-85
2023/03/06 11:32:25;;;;;;;4.63;2.33;;;3.10;99.90;;;;;;4979083;28;20395;-84
2023/03/06 11:35:11;;;;;;;4.97;2.70;;;3.00;99.90;;;;;;5008118;28;20487;-84
2023/03/06 11:37:48;;;;;;;4.50;2.33;;;3.00;99.90;;;;;;5006123;28;20461;-86
2023/03/06 11:40:19;;;;;;;2.83;2.15;;;3.20;99.90;;;;;;5006848;28;20746;-85
2023/03/06 11:43:22;;;;;;;3.13;2.20;;;3.60;99.90;;;;;;5008825;28;20414;-85
2023/03/06 11:46:01;;;;;;;3.45;2.67;;;3.90;99.90;;;;;;5018585;28;20731;-87
2023/03/06 11:48:48;;;;;;;3.45;2.58;;;3.80;99.90;;;;;;5027243;28;20926;-85
2023/03/06 11:51:35;;;;;;;4.20;2.70;;;3.50;99.90;;;;;;5022415;28;20416;-86
2023/03/06 11:54:04;;;;;;;3.40;2.40;;;3.70;99.90;;;;;;5023431;28;20409;-85
2023/03/06 11:56:41;;;;;;;4.38;2.30;;;3.80;99.90;;;;;;5024507;28;20405;-85
2023/03/06 11:59:22;;;;;;;4.85;2.25;;;3.80;99.90;;;;;;5031155;28;20409;-85
2023/03/06 12:02:13;;;;;;;3.60;2.15;;;3.80;99.90;;;;;;5020847;28;20428;-86
2023/03/06 12:05:13;;;;;;;4.18;2.30;;;4.10;99.90;;;;;;5027640;28;20432;-86
2023/03/06 12:08:15;;;;;;;;;;;;;;;;;;;;;
2023/03/06 12:10:56;;;;;;;2.80;1.95;;;3.90;99.90;;;;;;5027199;28;20763;-86
2023/03/06 12:13:43;;;;;;;4.47;2.10;;;3.70;99.90;;;;;;5025253;28;20411;-85
2023/03/06 12:16:30;;;;;;;2.70;2.25;;;3.80;99.90;;;;;;5019669;28;20801;-85
2023/03/06 12:19:25;;;;;;;4.63;2.30;;;3.80;99.90;;;;;;5011261;28;20399;-86
2023/03/06 12:22:09;;;;;;;3.53;2.37;;;3.90;99.90;;;;;;5020093;28;20507;-85
2023/03/06 12:25:08;;;;;;;3.72;2.13;;;3.90;99.90;;;;;;5027359;28;20393;-85
2023/03/06 12:27:46;;;;;;;3.20;2.17;;;3.90;99.90;;;;;;5030062;28;20455;-85
2023/03/06 12:30:27;;;;;;;3.38;2.00;;;4.30;99.90;;;;;;5031383;28;20385;-85
2023/03/06 12:32:59;;;;;;;4.20;1.90;;;4.50;99.90;;;;;;5026727;28;20405;-86
2023/03/06 12:35:44;;;;;;;3.85;1.98;;;4.40;99.90;;;;;;5032029;28;20386;-85
2023/03/06 12:38:10;;;;;;;3.75;2.00;;;4.50;99.90;;;;;;5031029;28;20389;-84
2023/03/06 12:41:19;;;;;;;4.33;3.43;;;4.80;99.90;;;;;;5030200;28;20439;-84
2023/03/06 12:44:25;;;;;;;4.07;2.05;;;5.00;99.90;;;;;;4990498;28;20407;-85
2023/03/06 12:47:00;;;;;;;3.20;2.00;;;4.90;99.90;;;;;;4990383;28;20414;-85
2023/03/06 12:49:30;;;;;;;3.83;2.10;;;5.10;99.90;;;;;;5012014;28;20375;-85
2023/03/06 12:58:30;;;;;;;3.65;1.98;;;4.60;99.90;;;;;;4957372;28;20394;-86
2023/03/06 13:01:12;;;;;;;4.82;2.22;;;5.00;99.90;;;;;;5041584;28;20415;-85
2023/03/06 13:04:14;;;;;;;5.47;3.33;;;4.90;99.90;;;;;;5027206;28;20459;-87
2023/03/06 13:07:02;;;;;;;5.40;2.92;;;5.20;99.90;;;;;;5028953;28;20379;-86
2023/03/06 13:09:50;;;;;;;7.13;5.60;;;4.80;99.90;;;;;;5030120;28;20489;-86
2023/03/06 13:13:14;;;;;;;2.75;2.05;;;4.90;99.90;;;;;;5026208;28;20401;-86
2023/03/06 13:16:22;;;;;;;4.03;2.60;;;4.70;99.90;;;;;;5029232;28;20397;-87
2023/03/06 13:18:56;;;;;;;4.40;2.00;;;4.90;99.90;;;;;;5031935;28;20459;-86
2023/03/06 13:21:41;;;;;;;3.22;1.88;;;4.80;99.90;;;;;;5028303;28;20480;-86
2023/03/06 13:24:22;;;;;;;3.00;1.80;;;4.60;99.90;;;;;;5026983;28;20405;-86